KLWV/LWV METAR and TAF weather

Enter ICAO airport designator
Station Type Date Time Source
KLWV METAR 2021/04/13 22:53 UTC NOAA

KLWV 132253Z AUTO VRB06KT 10SM BKN090 18/02 A3012 RMK AO2 SLP198 T01780022 $


Station Type Date Time Source
KLWV Decoded METAR 2021/04/13 22:53 UTC NOAA

LAWRENCEVILLE-VINCENNES INTERNATIONAL , IL, United States (KLWV) 38-46N 87-36W 131M
Apr 13, 2021 - 06:53 PM EDT / 2021.04.13 2253 UTC
Wind: Variable at 7 MPH (6 KT):0
Visibility: 10 mile(s):0
Sky conditions: mostly cloudy
Temperature: 64.0 F (17.8 C)
Dew Point: 36.0 F (2.2 C)
Relative Humidity: 35%
Pressure (altimeter): 30.12 in. Hg (1019 hPa)
ob: KLWV 132253Z AUTO VRB06KT 10SM BKN090 18/02 A3012 RMK AO2 SLP198 T01780022
cycle: 23

Station Type Date Time Source
KLWV TAF UTC NOAA

Error!

Example: see airport list